createdAt,value
2018-08-06T00:00:15.248Z,17.00
2018-08-06T00:02:43.532Z,16.90
2018-08-06T00:05:11.992Z,16.90
2018-08-06T00:07:40.298Z,16.80
2018-08-06T00:10:11.917Z,16.80
2018-08-06T00:12:40.475Z,16.80
2018-08-06T00:15:09.813Z,16.80
2018-08-06T00:17:38.282Z,16.80
2018-08-06T00:20:07.311Z,16.90
2018-08-06T00:22:35.595Z,16.80
2018-08-06T00:25:04.474Z,16.70
2018-08-06T00:27:33.241Z,16.60
2018-08-06T00:30:01.555Z,16.50
2018-08-06T00:32:29.845Z,16.30
2018-08-06T00:34:58.141Z,16.40
2018-08-06T00:37:26.462Z,16.30
2018-08-06T00:39:54.811Z,16.40
2018-08-06T00:42:23.136Z,16.20
2018-08-06T00:44:51.439Z,16.10
2018-08-06T00:47:19.758Z,16.10
2018-08-06T00:49:48.089Z,16.10
2018-08-06T00:54:44.383Z,16.10
2018-08-06T00:57:12.712Z,16.10
2018-08-06T00:59:41.014Z,16.10
2018-08-06T01:02:09.368Z,16.00
2018-08-06T01:04:38.234Z,16.00
2018-08-06T01:07:06.573Z,15.90
2018-08-06T01:09:34.866Z,16.00
2018-08-06T01:12:03.189Z,16.00
2018-08-06T01:16:59.490Z,16.00
2018-08-06T01:19:27.784Z,16.00
2018-08-06T01:21:56.055Z,16.00
2018-08-06T01:24:24.354Z,16.00
2018-08-06T01:29:20.650Z,15.80
2018-08-06T01:31:48.931Z,15.80
2018-08-06T01:34:17.253Z,15.70
2018-08-06T01:36:45.530Z,15.80
2018-08-06T01:39:14.387Z,15.70
2018-08-06T01:41:42.700Z,15.80
2018-08-06T01:44:11.016Z,15.70
2018-08-06T01:46:39.457Z,15.70
2018-08-06T01:49:07.759Z,15.70
2018-08-06T01:51:36.031Z,15.70
2018-08-06T01:54:04.330Z,15.70
2018-08-06T01:56:32.646Z,15.50
2018-08-06T01:59:00.938Z,15.60
2018-08-06T02:01:29.229Z,15.60
2018-08-06T02:03:57.529Z,15.60
2018-08-06T02:06:25.821Z,15.60
2018-08-06T02:08:54.135Z,15.50
2018-08-06T02:11:22.416Z,15.60
2018-08-06T02:13:50.703Z,15.60
2018-08-06T02:16:18.990Z,15.60
2018-08-06T02:18:47.321Z,15.60
2018-08-06T02:21:15.644Z,15.60
2018-08-06T02:23:43.922Z,15.50
2018-08-06T02:26:12.199Z,15.40
2018-08-06T02:28:40.502Z,15.50
2018-08-06T02:31:08.802Z,15.50
2018-08-06T02:33:37.095Z,15.50
2018-08-06T02:36:05.405Z,15.60
2018-08-06T02:38:33.704Z,15.60
2018-08-06T02:41:02.043Z,15.60
2018-08-06T02:43:30.375Z,15.70
2018-08-06T02:45:58.684Z,15.60
2018-08-06T02:48:26.983Z,15.60
2018-08-06T02:50:55.226Z,15.60
2018-08-06T02:53:23.510Z,15.60
2018-08-06T02:55:51.791Z,15.50
2018-08-06T02:58:20.064Z,15.70
2018-08-06T03:00:48.422Z,15.80
2018-08-06T03:03:17.554Z,15.70
2018-08-06T03:05:45.880Z,15.70
2018-08-06T03:08:14.161Z,15.70
2018-08-06T03:10:42.431Z,15.60
2018-08-06T03:13:10.690Z,15.50
2018-08-06T03:15:38.982Z,15.40
2018-08-06T03:18:07.266Z,15.50
2018-08-06T03:20:35.621Z,15.40
2018-08-06T03:23:03.978Z,15.30
2018-08-06T03:25:32.300Z,15.50
2018-08-06T03:28:00.571Z,15.50
2018-08-06T03:30:28.869Z,15.50
2018-08-06T03:32:57.174Z,15.50
2018-08-06T03:35:25.468Z,15.50
2018-08-06T03:37:53.774Z,15.50
2018-08-06T03:40:22.099Z,15.40
2018-08-06T03:42:50.348Z,15.40
2018-08-06T03:45:18.606Z,15.40
2018-08-06T03:47:46.877Z,15.40
2018-08-06T03:50:15.186Z,15.40
2018-08-06T03:52:43.843Z,15.40
2018-08-06T03:55:12.438Z,15.40
2018-08-06T03:57:41.219Z,15.30
2018-08-06T04:00:11.476Z,15.30
2018-08-06T04:02:40.172Z,15.30
2018-08-06T04:05:10.038Z,15.30
2018-08-06T04:07:38.745Z,15.30
2018-08-06T04:10:08.340Z,15.30
2018-08-06T04:12:36.608Z,15.20
2018-08-06T04:15:05.913Z,15.10
2018-08-06T04:17:34.190Z,15.10
2018-08-06T04:20:02.464Z,15.00
2018-08-06T04:22:30.745Z,14.90
2018-08-06T04:24:59.023Z,14.90
2018-08-06T04:27:27.300Z,14.90
2018-08-06T04:29:55.590Z,15.00
2018-08-06T04:32:23.882Z,14.90
2018-08-06T04:34:52.145Z,15.00
2018-08-06T04:37:20.413Z,15.00
2018-08-06T04:39:48.706Z,15.10
2018-08-06T04:42:17.019Z,15.20
2018-08-06T04:44:45.322Z,15.30
2018-08-06T04:47:13.625Z,15.50
2018-08-06T04:49:41.925Z,15.60
2018-08-06T04:52:10.218Z,15.70
2018-08-06T04:54:38.553Z,15.80
2018-08-06T04:57:06.828Z,15.90
2018-08-06T04:59:37.278Z,16.00
2018-08-06T05:02:05.661Z,16.10
2018-08-06T05:04:34.025Z,16.10
2018-08-06T05:07:02.422Z,16.20
2018-08-06T05:09:41.823Z,16.30
2018-08-06T05:12:10.109Z,16.40
2018-08-06T05:14:39.579Z,16.60
2018-08-06T05:17:08.091Z,16.50
2018-08-06T05:19:37.163Z,16.60
2018-08-06T05:22:05.982Z,16.70
2018-08-06T05:24:34.331Z,16.90
2018-08-06T05:27:02.659Z,17.10
2018-08-06T05:29:30.969Z,17.30
2018-08-06T05:31:59.243Z,17.40
2018-08-06T05:34:27.613Z,17.40
2018-08-06T05:36:55.906Z,17.40
2018-08-06T05:39:24.212Z,17.60
2018-08-06T05:41:52.535Z,17.80
2018-08-06T05:44:20.879Z,17.90
2018-08-06T05:46:49.282Z,18.10
2018-08-06T05:49:17.605Z,18.40
2018-08-06T05:51:45.881Z,18.60
2018-08-06T05:54:14.207Z,18.90
2018-08-06T05:56:42.542Z,19.00
2018-08-06T05:59:10.899Z,19.20
2018-08-06T06:01:39.257Z,19.40
2018-08-06T06:04:07.560Z,19.70
2018-08-06T06:06:35.893Z,20.20
2018-08-06T06:09:06.294Z,20.60
2018-08-06T06:11:34.616Z,20.90
2018-08-06T06:14:02.932Z,21.40
2018-08-06T06:16:31.193Z,21.80
2018-08-06T06:18:59.503Z,22.10
2018-08-06T06:21:27.863Z,22.50
2018-08-06T06:23:56.160Z,22.40
2018-08-06T06:26:24.511Z,22.30
2018-08-06T06:28:52.885Z,22.60
2018-08-06T06:31:22.270Z,22.70
2018-08-06T06:33:50.582Z,22.80
2018-08-06T06:36:18.879Z,23.30
2018-08-06T06:38:47.369Z,23.70
2018-08-06T06:41:15.702Z,24.10
2018-08-06T06:43:44.061Z,24.50
2018-08-06T06:48:40.391Z,24.60
2018-08-06T06:51:08.716Z,24.80
2018-08-06T06:53:37.032Z,25.10
2018-08-06T06:56:05.498Z,25.00
2018-08-06T06:58:33.780Z,25.10
2018-08-06T07:01:02.085Z,25.70
2018-08-06T07:03:30.420Z,26.00
2018-08-06T07:05:58.726Z,26.20
2018-08-06T07:08:27.042Z,25.60
2018-08-06T07:10:55.388Z,26.10
2018-08-06T07:13:23.904Z,26.10
2018-08-06T07:15:52.265Z,26.50
2018-08-06T07:20:48.656Z,26.60
2018-08-06T07:23:16.981Z,26.90
2018-08-06T07:25:45.327Z,27.90
2018-08-06T07:28:13.626Z,27.70
2018-08-06T07:30:41.955Z,28.00
2018-08-06T07:33:11.471Z,28.00
2018-08-06T07:35:39.749Z,28.40
2018-08-06T07:38:08.032Z,28.60
2018-08-06T07:40:36.316Z,28.80
2018-08-06T07:43:04.642Z,28.80
2018-08-06T07:45:32.968Z,29.00
2018-08-06T07:48:01.347Z,28.80
2018-08-06T07:52:57.645Z,28.90
2018-08-06T07:55:25.957Z,28.00
2018-08-06T07:57:54.277Z,28.00
2018-08-06T08:00:22.691Z,28.50
2018-08-06T08:02:51.002Z,29.00
2018-08-06T08:05:19.684Z,29.10
2018-08-06T08:07:48.566Z,29.30
2018-08-06T08:10:19.635Z,29.50
2018-08-06T08:12:47.924Z,29.10
2018-08-06T08:15:18.928Z,28.70
2018-08-06T08:17:47.469Z,29.30
2018-08-06T08:20:25.427Z,29.30
2018-08-06T08:22:53.790Z,29.60
2018-08-06T08:25:23.098Z,29.70
2018-08-06T08:27:51.487Z,29.20
2018-08-06T08:30:24.536Z,29.20
2018-08-06T08:32:57.754Z,29.30
2018-08-06T08:35:32.016Z,29.40
2018-08-06T08:38:01.884Z,29.30
2018-08-06T08:40:30.829Z,29.70
2018-08-06T08:42:59.142Z,29.20
2018-08-06T08:45:27.584Z,28.80
2018-08-06T08:47:55.880Z,28.70
2018-08-06T08:50:24.189Z,28.60
2018-08-06T08:52:52.570Z,28.90
2018-08-06T08:55:21.055Z,29.20
2018-08-06T08:57:49.369Z,29.20
2018-08-06T09:00:20.600Z,29.00
2018-08-06T09:02:49.722Z,29.20
2018-08-06T09:05:18.610Z,29.00
2018-08-06T09:07:47.308Z,28.50
2018-08-06T09:10:16.476Z,28.10
2018-08-06T09:12:44.917Z,28.10
2018-08-06T09:15:19.675Z,28.40
2018-08-06T09:17:48.020Z,28.60
2018-08-06T09:20:16.345Z,28.50
2018-08-06T09:22:45.201Z,28.30
2018-08-06T09:25:14.118Z,28.40
2018-08-06T09:27:43.808Z,28.30
2018-08-06T09:30:15.320Z,28.80
2018-08-06T09:32:44.905Z,29.00
2018-08-06T09:35:14.067Z,29.20
2018-08-06T09:37:42.505Z,29.20
2018-08-06T09:40:12.927Z,29.30
2018-08-06T09:42:41.757Z,29.40
2018-08-06T09:45:11.893Z,29.50
2018-08-06T09:47:41.066Z,29.70
2018-08-06T09:50:10.825Z,29.70
2018-08-06T09:52:39.324Z,29.60
2018-08-06T09:55:11.630Z,29.70
2018-08-06T09:57:40.058Z,29.70
2018-08-06T10:00:15.001Z,29.30
2018-08-06T10:02:43.336Z,29.70
2018-08-06T10:05:11.633Z,30.00
2018-08-06T10:07:39.952Z,30.10
2018-08-06T10:10:10.629Z,30.10
2018-08-06T10:12:39.050Z,30.40
2018-08-06T10:15:08.102Z,30.40
2018-08-06T10:17:36.511Z,30.30
2018-08-06T10:20:06.555Z,30.10
2018-08-06T10:22:34.893Z,30.10
2018-08-06T10:25:03.248Z,30.10
2018-08-06T10:27:31.589Z,30.10
2018-08-06T10:30:00.123Z,30.30
2018-08-06T10:32:28.510Z,30.50
2018-08-06T10:34:56.821Z,30.70
2018-08-06T10:37:25.246Z,30.70
2018-08-06T10:39:53.533Z,30.50
2018-08-06T10:42:21.906Z,30.50
2018-08-06T10:44:50.203Z,30.50
2018-08-06T10:47:18.576Z,30.80
2018-08-06T10:49:46.918Z,31.30
2018-08-06T10:52:15.230Z,31.50
2018-08-06T10:54:43.710Z,31.80
2018-08-06T10:57:12.150Z,31.80
2018-08-06T10:59:40.758Z,31.40
2018-08-06T11:02:09.104Z,31.10
2018-08-06T11:04:37.421Z,31.00
2018-08-06T11:07:05.795Z,31.10
2018-08-06T11:09:34.127Z,30.90
2018-08-06T11:14:30.681Z,31.50
2018-08-06T11:16:59.042Z,31.50
2018-08-06T11:19:27.681Z,31.30
2018-08-06T11:21:56.192Z,31.30
2018-08-06T11:24:24.540Z,31.30
2018-08-06T11:26:52.852Z,31.40
2018-08-06T11:29:21.256Z,31.30
2018-08-06T11:31:49.590Z,31.30
2018-08-06T11:34:17.954Z,31.50
2018-08-06T11:36:46.336Z,32.00
2018-08-06T11:39:14.626Z,32.40
2018-08-06T11:41:42.987Z,32.20
2018-08-06T11:44:11.383Z,32.40
2018-08-06T11:46:39.776Z,32.00
2018-08-06T11:49:08.121Z,31.70
2018-08-06T11:51:36.554Z,31.60
2018-08-06T11:54:04.921Z,31.60
2018-08-06T11:56:33.341Z,31.70
2018-08-06T11:59:01.666Z,32.00
2018-08-06T12:01:30.058Z,32.40
2018-08-06T12:03:58.389Z,32.60
2018-08-06T12:06:26.815Z,32.50
2018-08-06T12:08:59.721Z,32.50
2018-08-06T12:11:28.061Z,32.50
2018-08-06T12:13:56.412Z,32.70
2018-08-06T12:16:24.749Z,32.70
2018-08-06T12:18:53.089Z,32.70
2018-08-06T12:21:21.446Z,32.80
2018-08-06T12:23:49.781Z,32.80
2018-08-06T12:26:18.228Z,32.60
2018-08-06T12:28:46.537Z,32.30
2018-08-06T12:31:14.936Z,32.20
2018-08-06T12:33:43.252Z,32.30
2018-08-06T12:36:11.628Z,33.10
2018-08-06T12:38:47.067Z,33.40
2018-08-06T12:41:15.421Z,33.70
2018-08-06T12:43:43.779Z,34.00
2018-08-06T12:46:12.175Z,34.90
2018-08-06T12:51:08.656Z,36.00
2018-08-06T12:53:37.064Z,36.10
2018-08-06T12:56:06.216Z,35.80
2018-08-06T12:58:34.569Z,36.00
2018-08-06T13:01:02.975Z,36.30
2018-08-06T13:03:31.300Z,36.80
2018-08-06T13:05:59.677Z,37.00
2018-08-06T13:08:28.022Z,37.70
2018-08-06T13:10:56.382Z,38.40
2018-08-06T13:13:25.540Z,38.30
2018-08-06T13:15:53.875Z,38.60
2018-08-06T13:18:22.210Z,38.00
2018-08-06T13:20:50.563Z,38.00
2018-08-06T13:23:19.223Z,38.00
2018-08-06T13:25:47.567Z,37.70
2018-08-06T13:28:15.927Z,37.20
2018-08-06T13:30:44.253Z,37.10
2018-08-06T13:33:12.594Z,37.30
2018-08-06T13:35:40.951Z,37.20
2018-08-06T13:38:09.341Z,37.10
2018-08-06T13:43:05.769Z,38.00
2018-08-06T13:45:34.093Z,38.70
2018-08-06T13:48:02.473Z,38.60
2018-08-06T13:50:30.972Z,38.70
2018-08-06T13:52:59.318Z,38.40
2018-08-06T13:55:27.693Z,37.90
2018-08-06T13:57:56.010Z,38.10
2018-08-06T14:00:24.392Z,39.10
2018-08-06T14:02:52.759Z,38.80
2018-08-06T14:05:21.152Z,38.10
2018-08-06T14:07:49.957Z,37.50
2018-08-06T14:10:18.471Z,38.60
2018-08-06T14:12:46.905Z,39.20
2018-08-06T14:15:15.265Z,38.50
2018-08-06T14:17:44.056Z,38.00
2018-08-06T14:20:14.090Z,38.70
2018-08-06T14:22:42.503Z,38.80
2018-08-06T14:25:11.336Z,38.70
2018-08-06T14:27:39.709Z,38.80
2018-08-06T14:30:12.832Z,39.40
2018-08-06T14:32:41.941Z,39.80
2018-08-06T14:35:11.096Z,39.50
2018-08-06T14:37:39.483Z,39.60
2018-08-06T14:40:11.087Z,39.40
2018-08-06T14:42:39.426Z,39.60
2018-08-06T14:45:08.724Z,40.10
2018-08-06T14:47:37.171Z,40.40
2018-08-06T14:50:06.559Z,41.20
2018-08-06T14:55:02.944Z,40.30
2018-08-06T14:57:36.991Z,39.70
2018-08-06T15:00:19.234Z,40.30
2018-08-06T15:02:48.074Z,40.00
2018-08-06T15:05:16.924Z,40.70
2018-08-06T15:07:45.464Z,40.80
2018-08-06T15:10:14.426Z,39.60
2018-08-06T15:12:42.855Z,39.30
2018-08-06T15:15:13.589Z,39.30
2018-08-06T15:17:42.414Z,39.30
2018-08-06T15:20:12.894Z,39.20
2018-08-06T15:22:41.299Z,39.20
2018-08-06T15:25:12.933Z,39.30
2018-08-06T15:27:41.700Z,39.50
2018-08-06T15:30:10.473Z,40.40
2018-08-06T15:32:38.975Z,40.50
2018-08-06T15:35:08.113Z,39.40
2018-08-06T15:37:36.935Z,39.50
2018-08-06T15:40:06.915Z,39.70
2018-08-06T15:42:35.362Z,39.70
2018-08-06T15:45:03.793Z,39.00
2018-08-06T15:47:32.151Z,39.00
2018-08-06T15:50:00.585Z,39.90
2018-08-06T15:52:28.990Z,40.40
2018-08-06T15:54:57.350Z,41.20
2018-08-06T15:57:25.845Z,41.00
2018-08-06T15:59:54.286Z,41.20
2018-08-06T16:02:22.761Z,41.40
2018-08-06T16:04:51.200Z,41.20
2018-08-06T16:09:47.594Z,39.90
2018-08-06T16:12:16.067Z,40.00
2018-08-06T16:14:44.500Z,40.70
2018-08-06T16:17:12.863Z,40.90
2018-08-06T16:19:41.216Z,40.10
2018-08-06T16:22:09.570Z,40.10
2018-08-06T16:24:37.972Z,40.10
2018-08-06T16:27:06.355Z,40.80
2018-08-06T16:29:34.718Z,40.00
2018-08-06T16:32:03.169Z,39.50
2018-08-06T16:34:31.626Z,39.60
2018-08-06T16:37:00.214Z,39.80
2018-08-06T16:39:28.723Z,39.40
2018-08-06T16:41:57.181Z,39.10
2018-08-06T16:44:25.644Z,39.40
2018-08-06T16:46:54.178Z,39.00
2018-08-06T16:49:22.615Z,38.80
2018-08-06T16:51:50.998Z,39.20
2018-08-06T16:54:19.397Z,39.40
2018-08-06T16:56:47.729Z,39.40
2018-08-06T16:59:16.077Z,39.20
2018-08-06T17:01:44.441Z,38.00
2018-08-06T17:04:12.795Z,37.70
2018-08-06T17:06:41.177Z,37.70
2018-08-06T17:09:10.044Z,37.00
2018-08-06T17:11:38.401Z,36.70
2018-08-06T17:14:06.926Z,36.80
2018-08-06T17:16:35.257Z,36.70
2018-08-06T17:19:03.612Z,36.40
2018-08-06T17:21:31.962Z,36.40
2018-08-06T17:24:00.428Z,36.20
2018-08-06T17:26:28.997Z,35.60
2018-08-06T17:28:57.415Z,34.70
2018-08-06T17:31:25.725Z,34.00
2018-08-06T17:33:54.162Z,33.60
2018-08-06T17:36:22.544Z,33.20
2018-08-06T17:38:50.913Z,32.90
2018-08-06T17:41:19.295Z,32.50
2018-08-06T17:43:47.756Z,32.20
2018-08-06T17:46:16.212Z,32.20
2018-08-06T17:48:44.629Z,32.00
2018-08-06T17:51:13.320Z,31.90
2018-08-06T17:53:41.713Z,31.80
2018-08-06T17:56:10.051Z,31.70
2018-08-06T17:58:38.472Z,31.70
2018-08-06T18:01:07.509Z,31.60
2018-08-06T18:03:35.932Z,31.60
2018-08-06T18:08:32.350Z,31.40
2018-08-06T18:11:00.744Z,31.20
2018-08-06T18:13:29.173Z,31.10
2018-08-06T18:15:57.537Z,31.10
2018-08-06T18:18:25.888Z,31.00
2018-08-06T18:20:54.374Z,30.90
2018-08-06T18:23:22.792Z,30.90
2018-08-06T18:25:51.133Z,30.90
2018-08-06T18:28:19.517Z,30.80
2018-08-06T18:30:47.852Z,30.70
2018-08-06T18:33:16.264Z,30.70
2018-08-06T18:35:44.634Z,30.70
2018-08-06T18:38:12.976Z,30.60
2018-08-06T18:40:41.362Z,30.50
2018-08-06T18:43:09.716Z,30.40
2018-08-06T18:45:38.061Z,30.30
2018-08-06T18:50:34.484Z,30.10
2018-08-06T18:53:02.845Z,30.00
2018-08-06T18:55:31.250Z,30.00
2018-08-06T18:57:59.665Z,29.80
2018-08-06T19:00:28.036Z,29.70
2018-08-06T19:02:56.377Z,29.60
2018-08-06T19:05:24.808Z,29.50
2018-08-06T19:07:53.133Z,29.40
2018-08-06T19:10:21.519Z,29.20
2018-08-06T19:12:55.226Z,28.90
2018-08-06T19:15:23.533Z,28.60
2018-08-06T19:17:57.200Z,28.20
2018-08-06T19:20:25.599Z,28.00
2018-08-06T19:22:54.015Z,27.70
2018-08-06T19:25:26.026Z,27.40
2018-08-06T19:27:54.588Z,27.20
2018-08-06T19:30:27.179Z,27.00
2018-08-06T19:32:56.139Z,26.80
2018-08-06T19:35:24.476Z,26.80
2018-08-06T19:37:52.885Z,26.70
2018-08-06T19:40:21.265Z,26.60
2018-08-06T19:42:54.854Z,26.60
2018-08-06T19:45:23.360Z,26.60
2018-08-06T19:47:51.694Z,26.50
2018-08-06T19:50:25.502Z,26.40
2018-08-06T19:52:54.514Z,26.20
2018-08-06T19:55:28.766Z,25.70
2018-08-06T19:57:57.124Z,25.40
2018-08-06T20:00:25.491Z,25.10
2018-08-06T20:02:53.893Z,24.80
2018-08-06T20:05:22.272Z,24.50
2018-08-06T20:07:51.177Z,24.50
2018-08-06T20:10:19.589Z,24.30
2018-08-06T20:12:48.004Z,24.40
2018-08-06T20:15:18.290Z,24.30
2018-08-06T20:17:47.883Z,24.20
2018-08-06T20:20:16.369Z,24.20
2018-08-06T20:22:45.086Z,24.10
2018-08-06T20:25:16.946Z,24.10
2018-08-06T20:27:46.353Z,24.10
2018-08-06T20:30:16.073Z,24.10
2018-08-06T20:32:44.423Z,23.90
2018-08-06T20:35:14.427Z,23.80
2018-08-06T20:37:42.852Z,23.70
2018-08-06T20:42:40.695Z,23.40
2018-08-06T20:45:12.261Z,23.30
2018-08-06T20:47:41.325Z,23.20
2018-08-06T20:50:13.340Z,23.10
2018-08-06T20:52:42.248Z,23.10
2018-08-06T20:55:11.258Z,23.00
2018-08-06T20:57:40.032Z,22.90
2018-08-06T21:00:15.710Z,22.80
2018-08-06T21:02:44.242Z,22.70
2018-08-06T21:05:12.576Z,22.50
2018-08-06T21:07:41.209Z,22.40
2018-08-06T21:10:11.324Z,22.30
2018-08-06T21:12:39.635Z,22.30
2018-08-06T21:15:08.751Z,22.20
2018-08-06T21:17:37.362Z,22.20
2018-08-06T21:20:07.601Z,22.10
2018-08-06T21:22:35.968Z,22.00
2018-08-06T21:25:05.336Z,21.90
2018-08-06T21:27:33.706Z,21.70
2018-08-06T21:30:02.101Z,21.80
2018-08-06T21:32:30.459Z,21.60
2018-08-06T21:34:58.769Z,21.60
2018-08-06T21:37:27.136Z,21.50
2018-08-06T21:39:55.512Z,21.40
2018-08-06T21:42:23.886Z,21.30
2018-08-06T21:44:52.290Z,21.10
2018-08-06T21:47:20.596Z,21.00
2018-08-06T21:49:48.962Z,21.00
2018-08-06T21:52:17.313Z,20.90
2018-08-06T21:54:45.654Z,20.70
2018-08-06T21:57:13.996Z,20.60
2018-08-06T21:59:42.345Z,20.60
2018-08-06T22:02:10.657Z,20.60
2018-08-06T22:04:39.010Z,20.60
2018-08-06T22:07:07.339Z,20.50
2018-08-06T22:09:35.834Z,20.50
2018-08-06T22:12:04.157Z,20.40
2018-08-06T22:14:32.485Z,20.40
2018-08-06T22:17:00.811Z,20.30
2018-08-06T22:19:29.130Z,20.20
2018-08-06T22:21:57.468Z,20.10
2018-08-06T22:24:25.828Z,20.00
2018-08-06T22:26:54.128Z,20.00
2018-08-06T22:29:22.505Z,19.90
2018-08-06T22:31:50.894Z,19.80
2018-08-06T22:34:19.245Z,19.70
2018-08-06T22:36:47.619Z,19.70
2018-08-06T22:39:16.709Z,19.70
2018-08-06T22:41:45.040Z,19.60
2018-08-06T22:44:13.380Z,19.50
2018-08-06T22:46:41.726Z,19.50
2018-08-06T22:49:10.048Z,19.40
2018-08-06T22:51:38.371Z,19.40
2018-08-06T22:54:06.760Z,19.40
2018-08-06T22:56:35.089Z,19.30
2018-08-06T22:59:03.420Z,19.30
2018-08-06T23:01:31.730Z,19.20
2018-08-06T23:04:00.085Z,19.10
2018-08-06T23:06:28.441Z,19.00
2018-08-06T23:08:56.892Z,19.00
2018-08-06T23:11:25.128Z,19.00
2018-08-06T23:13:53.438Z,18.90
2018-08-06T23:18:49.839Z,18.80
2018-08-06T23:21:18.139Z,18.60
2018-08-06T23:23:46.493Z,18.40
2018-08-06T23:26:14.812Z,18.40
2018-08-06T23:28:43.134Z,18.40
2018-08-06T23:31:21.556Z,18.40
2018-08-06T23:33:49.877Z,18.40
2018-08-06T23:36:18.193Z,18.50
2018-08-06T23:38:47.015Z,18.40
2018-08-06T23:41:15.350Z,18.30
2018-08-06T23:43:43.675Z,18.30
2018-08-06T23:46:12.036Z,18.30
2018-08-06T23:48:40.371Z,18.20
2018-08-06T23:51:08.706Z,18.20
2018-08-06T23:53:37.026Z,18.20
2018-08-06T23:56:05.431Z,18.20
2018-08-06T23:58:33.756Z,18.20
